sensor_id;sensor_type;location;lat;lon;timestamp;temperature;humidity
73939;DHT22;62291;47.554;8.504;2023-03-23T00:01:18;9.60;99.90
73939;DHT22;62291;47.554;8.504;2023-03-23T00:03:48;9.60;99.90
73939;DHT22;62291;47.554;8.504;2023-03-23T00:06:15;9.60;99.90
73939;DHT22;62291;47.554;8.504;2023-03-23T00:08:44;9.60;99.90
73939;DHT22;62291;47.554;8.504;2023-03-23T00:11:14;9.70;99.90
73939;DHT22;62291;47.554;8.504;2023-03-23T00:13:44;9.70;99.90
73939;DHT22;62291;47.554;8.504;2023-03-23T00:16:16;9.70;99.90
73939;DHT22;62291;47.554;8.504;2023-03-23T00:18:47;9.70;99.90
73939;DHT22;62291;47.554;8.504;2023-03-23T00:21:13;9.70;99.90
73939;DHT22;62291;47.554;8.504;2023-03-23T00:23:39;9.60;99.90
73939;DHT22;62291;47.554;8.504;2023-03-23T00:26:05;9.60;99.90
73939;DHT22;62291;47.554;8.504;2023-03-23T00:28:31;9.50;99.90
73939;DHT22;62291;47.554;8.504;2023-03-23T00:31:01;9.60;99.90
73939;DHT22;62291;47.554;8.504;2023-03-23T00:33:33;9.50;99.90
73939;DHT22;62291;47.554;8.504;2023-03-23T00:36:04;9.50;99.90
73939;DHT22;62291;47.554;8.504;2023-03-23T00:38:30;9.50;99.90
73939;DHT22;62291;47.554;8.504;2023-03-23T00:40:56;9.50;99.90
73939;DHT22;62291;47.554;8.504;2023-03-23T00:43:23;9.60;99.90
73939;DHT22;62291;47.554;8.504;2023-03-23T00:45:50;9.50;99.90
73939;DHT22;62291;47.554;8.504;2023-03-23T00:48:20;9.50;99.90
73939;DHT22;62291;47.554;8.504;2023-03-23T00:50:46;9.50;99.90
73939;DHT22;62291;47.554;8.504;2023-03-23T00:53:12;9.50;99.90
73939;DHT22;62291;47.554;8.504;2023-03-23T00:55:40;9.50;99.90
73939;DHT22;62291;47.554;8.504;2023-03-23T00:58:06;9.40;99.90
73939;DHT22;62291;47.554;8.504;2023-03-23T01:00:32;9.50;99.90
73939;DHT22;62291;47.554;8.504;2023-03-23T01:02:57;9.50;99.90
73939;DHT22;62291;47.554;8.504;2023-03-23T01:05:23;9.60;99.90
73939;DHT22;62291;47.554;8.504;2023-03-23T01:07:49;9.60;99.90
73939;DHT22;62291;47.554;8.504;2023-03-23T01:10:15;9.60;99.90
73939;DHT22;62291;47.554;8.504;2023-03-23T01:12:46;9.60;99.90
73939;DHT22;62291;47.554;8.504;2023-03-23T01:15:16;9.60;99.90
73939;DHT22;62291;47.554;8.504;2023-03-23T01:17:43;9.70;99.90
73939;DHT22;62291;47.554;8.504;2023-03-23T01:20:10;9.70;99.90
73939;DHT22;62291;47.554;8.504;2023-03-23T01:22:36;9.80;99.90
73939;DHT22;62291;47.554;8.504;2023-03-23T01:25:02;9.70;99.90
73939;DHT22;62291;47.554;8.504;2023-03-23T01:27:28;9.80;99.90
73939;DHT22;62291;47.554;8.504;2023-03-23T01:29:54;9.80;99.90
73939;DHT22;62291;47.554;8.504;2023-03-23T01:32:19;9.80;99.90
73939;DHT22;62291;47.554;8.504;2023-03-23T01:34:46;9.80;99.90
73939;DHT22;62291;47.554;8.504;2023-03-23T01:37:11;9.80;99.90
73939;DHT22;62291;47.554;8.504;2023-03-23T01:39:38;9.80;99.90
73939;DHT22;62291;47.554;8.504;2023-03-23T01:42:04;9.80;99.90
73939;DHT22;62291;47.554;8.504;2023-03-23T01:46:56;9.90;99.90
73939;DHT22;62291;47.554;8.504;2023-03-23T01:49:26;9.90;99.90
73939;DHT22;62291;47.554;8.504;2023-03-23T01:51:59;9.90;99.90
73939;DHT22;62291;47.554;8.504;2023-03-23T01:54:26;9.90;99.90
73939;DHT22;62291;47.554;8.504;2023-03-23T01:56:55;9.80;99.90
73939;DHT22;62291;47.554;8.504;2023-03-23T01:59:23;9.80;99.90
73939;DHT22;62291;47.554;8.504;2023-03-23T02:01:51;9.90;99.90
73939;DHT22;62291;47.554;8.504;2023-03-23T02:04:18;10.00;99.90
73939;DHT22;62291;47.554;8.504;2023-03-23T02:06:45;9.90;99.90
73939;DHT22;62291;47.554;8.504;2023-03-23T02:09:11;9.80;99.90
73939;DHT22;62291;47.554;8.504;2023-03-23T02:11:39;9.90;99.90
73939;DHT22;62291;47.554;8.504;2023-03-23T02:14:05;9.90;99.90
73939;DHT22;62291;47.554;8.504;2023-03-23T02:36:38;9.90;99.90
73939;DHT22;62291;47.554;8.504;2023-03-23T02:38:44;9.80;99.90
73939;DHT22;62291;47.554;8.504;2023-03-23T02:41:19;9.70;99.90
73939;DHT22;62291;47.554;8.504;2023-03-23T02:43:47;9.70;99.90
73939;DHT22;62291;47.554;8.504;2023-03-23T02:46:14;9.80;99.90
73939;DHT22;62291;47.554;8.504;2023-03-23T02:48:42;9.90;99.90
73939;DHT22;62291;47.554;8.504;2023-03-23T02:51:10;10.00;99.90
73939;DHT22;62291;47.554;8.504;2023-03-23T02:53:40;10.20;99.90
73939;DHT22;62291;47.554;8.504;2023-03-23T02:56:08;10.30;99.90
73939;DHT22;62291;47.554;8.504;2023-03-23T02:58:35;10.50;99.90
73939;DHT22;62291;47.554;8.504;2023-03-23T03:04:07;10.70;99.90
73939;DHT22;62291;47.554;8.504;2023-03-23T03:11:50;10.60;99.90
73939;DHT22;62291;47.554;8.504;2023-03-23T03:14:24;10.70;99.90
73939;DHT22;62291;47.554;8.504;2023-03-23T03:17:10;10.70;99.90
73939;DHT22;62291;47.554;8.504;2023-03-23T03:19:42;10.70;99.90
73939;DHT22;62291;47.554;8.504;2023-03-23T03:22:09;10.70;99.90
73939;DHT22;62291;47.554;8.504;2023-03-23T03:24:37;10.70;99.90
73939;DHT22;62291;47.554;8.504;2023-03-23T03:27:04;10.70;99.90
73939;DHT22;62291;47.554;8.504;2023-03-23T03:29:37;10.70;99.90
73939;DHT22;62291;47.554;8.504;2023-03-23T03:32:08;10.70;99.90
73939;DHT22;62291;47.554;8.504;2023-03-23T03:34:37;10.80;99.90
73939;DHT22;62291;47.554;8.504;2023-03-23T03:37:04;10.90;99.90
73939;DHT22;62291;47.554;8.504;2023-03-23T03:39:34;10.90;99.90
73939;DHT22;62291;47.554;8.504;2023-03-23T03:41:59;11.00;99.90
73939;DHT22;62291;47.554;8.504;2023-03-23T03:44:25;11.10;99.90
73939;DHT22;62291;47.554;8.504;2023-03-23T03:46:51;11.10;99.90
73939;DHT22;62291;47.554;8.504;2023-03-23T03:49:17;11.10;99.90
73939;DHT22;62291;47.554;8.504;2023-03-23T03:51:44;11.10;99.90
73939;DHT22;62291;47.554;8.504;2023-03-23T03:54:09;11.10;99.90
73939;DHT22;62291;47.554;8.504;2023-03-23T03:56:36;11.20;99.90
73939;DHT22;62291;47.554;8.504;2023-03-23T03:59:06;11.20;99.90
73939;DHT22;62291;47.554;8.504;2023-03-23T04:01:33;11.20;99.90
73939;DHT22;62291;47.554;8.504;2023-03-23T04:03:59;11.20;99.90
73939;DHT22;62291;47.554;8.504;2023-03-23T04:06:25;11.30;99.90
73939;DHT22;62291;47.554;8.504;2023-03-23T04:08:57;11.30;99.90
73939;DHT22;62291;47.554;8.504;2023-03-23T04:11:24;11.30;99.90
73939;DHT22;62291;47.554;8.504;2023-03-23T04:13:50;11.30;99.90
73939;DHT22;62291;47.554;8.504;2023-03-23T04:16:16;11.40;99.90
73939;DHT22;62291;47.554;8.504;2023-03-23T04:18:42;11.40;99.90
73939;DHT22;62291;47.554;8.504;2023-03-23T04:21:08;11.50;99.90
73939;DHT22;62291;47.554;8.504;2023-03-23T04:23:36;11.50;99.90
73939;DHT22;62291;47.554;8.504;2023-03-23T04:26:03;11.50;99.90
73939;DHT22;62291;47.554;8.504;2023-03-23T04:28:29;11.40;99.90
73939;DHT22;62291;47.554;8.504;2023-03-23T04:30:59;11.40;99.90
73939;DHT22;62291;47.554;8.504;2023-03-23T04:33:26;11.40;99.90
73939;DHT22;62291;47.554;8.504;2023-03-23T04:35:54;11.40;99.90
73939;DHT22;62291;47.554;8.504;2023-03-23T04:38:21;11.30;99.90
73939;DHT22;62291;47.554;8.504;2023-03-23T04:40:49;11.30;99.90
73939;DHT22;62291;47.554;8.504;2023-03-23T04:43:21;11.40;99.90
73939;DHT22;62291;47.554;8.504;2023-03-23T04:45:52;11.40;99.90
73939;DHT22;62291;47.554;8.504;2023-03-23T04:48:24;11.40;99.90
73939;DHT22;62291;47.554;8.504;2023-03-23T04:50:51;11.40;99.90
73939;DHT22;62291;47.554;8.504;2023-03-23T04:53:18;11.30;99.90
73939;DHT22;62291;47.554;8.504;2023-03-23T04:55:44;11.30;99.90
73939;DHT22;62291;47.554;8.504;2023-03-23T04:58:11;11.20;99.90
73939;DHT22;62291;47.554;8.504;2023-03-23T05:00:40;11.30;99.90
73939;DHT22;62291;47.554;8.504;2023-03-23T05:03:12;11.40;99.90
73939;DHT22;62291;47.554;8.504;2023-03-23T05:05:42;11.40;99.90
73939;DHT22;62291;47.554;8.504;2023-03-23T05:08:07;11.50;99.90
73939;DHT22;62291;47.554;8.504;2023-03-23T05:10:33;11.60;99.90
73939;DHT22;62291;47.554;8.504;2023-03-23T05:12:59;11.60;99.90
73939;DHT22;62291;47.554;8.504;2023-03-23T05:15:24;11.70;99.90
73939;DHT22;62291;47.554;8.504;2023-03-23T05:17:53;11.80;99.90
73939;DHT22;62291;47.554;8.504;2023-03-23T05:20:19;11.80;99.90
73939;DHT22;62291;47.554;8.504;2023-03-23T05:22:46;11.90;99.90
73939;DHT22;62291;47.554;8.504;2023-03-23T05:25:16;11.90;99.90
73939;DHT22;62291;47.554;8.504;2023-03-23T05:27:46;11.90;99.90
73939;DHT22;62291;47.554;8.504;2023-03-23T05:30:14;12.00;99.90
73939;DHT22;62291;47.554;8.504;2023-03-23T05:32:43;12.00;99.90
73939;DHT22;62291;47.554;8.504;2023-03-23T05:35:11;12.00;99.90
73939;DHT22;62291;47.554;8.504;2023-03-23T05:37:38;11.90;99.90
73939;DHT22;62291;47.554;8.504;2023-03-23T05:40:04;11.90;99.90
73939;DHT22;62291;47.554;8.504;2023-03-23T05:42:35;11.90;99.90
73939;DHT22;62291;47.554;8.504;2023-03-23T05:45:05;11.90;99.90
73939;DHT22;62291;47.554;8.504;2023-03-23T05:47:31;11.90;99.90
73939;DHT22;62291;47.554;8.504;2023-03-23T05:49:57;11.90;99.90
73939;DHT22;62291;47.554;8.504;2023-03-23T05:52:24;11.90;99.90
73939;DHT22;62291;47.554;8.504;2023-03-23T05:54:50;11.80;99.90
73939;DHT22;62291;47.554;8.504;2023-03-23T05:57:16;11.90;99.90
73939;DHT22;62291;47.554;8.504;2023-03-23T05:59:43;11.80;99.90
73939;DHT22;62291;47.554;8.504;2023-03-23T06:02:10;11.80;99.90
73939;DHT22;62291;47.554;8.504;2023-03-23T06:04:36;11.80;99.90
73939;DHT22;62291;47.554;8.504;2023-03-23T06:07:03;11.90;99.90
73939;DHT22;62291;47.554;8.504;2023-03-23T06:09:29;11.90;99.90
73939;DHT22;62291;47.554;8.504;2023-03-23T06:11:56;12.00;99.90
73939;DHT22;62291;47.554;8.504;2023-03-23T06:14:21;12.00;99.90
73939;DHT22;62291;47.554;8.504;2023-03-23T06:16:47;12.10;99.90
73939;DHT22;62291;47.554;8.504;2023-03-23T06:19:13;12.20;99.90
73939;DHT22;62291;47.554;8.504;2023-03-23T06:21:41;12.30;99.90
73939;DHT22;62291;47.554;8.504;2023-03-23T06:24:07;12.40;99.90
73939;DHT22;62291;47.554;8.504;2023-03-23T06:26:36;12.50;99.90
73939;DHT22;62291;47.554;8.504;2023-03-23T06:29:03;12.60;99.90
73939;DHT22;62291;47.554;8.504;2023-03-23T06:31:37;12.80;99.90
73939;DHT22;62291;47.554;8.504;2023-03-23T06:34:04;12.90;99.90
73939;DHT22;62291;47.554;8.504;2023-03-23T06:36:29;13.00;99.90
73939;DHT22;62291;47.554;8.504;2023-03-23T06:38:55;13.00;99.90
73939;DHT22;62291;47.554;8.504;2023-03-23T06:41:21;13.00;99.90
73939;DHT22;62291;47.554;8.504;2023-03-23T06:43:47;13.10;99.90
73939;DHT22;62291;47.554;8.504;2023-03-23T06:46:13;13.10;99.90
73939;DHT22;62291;47.554;8.504;2023-03-23T06:48:38;13.10;99.90
73939;DHT22;62291;47.554;8.504;2023-03-23T06:51:05;13.20;99.90
73939;DHT22;62291;47.554;8.504;2023-03-23T06:53:31;13.30;99.90
73939;DHT22;62291;47.554;8.504;2023-03-23T06:55:56;13.30;99.90
73939;DHT22;62291;47.554;8.504;2023-03-23T06:58:22;13.40;99.90
73939;DHT22;62291;47.554;8.504;2023-03-23T07:00:53;13.60;99.90
73939;DHT22;62291;47.554;8.504;2023-03-23T07:03:22;13.70;99.90
73939;DHT22;62291;47.554;8.504;2023-03-23T07:05:48;14.00;99.90
73939;DHT22;62291;47.554;8.504;2023-03-23T07:08:13;14.30;99.90
73939;DHT22;62291;47.554;8.504;2023-03-23T07:10:39;14.30;99.90
73939;DHT22;62291;47.554;8.504;2023-03-23T07:13:05;14.20;99.90
73939;DHT22;62291;47.554;8.504;2023-03-23T07:15:31;14.30;99.90
73939;DHT22;62291;47.554;8.504;2023-03-23T07:17:57;14.20;99.90
73939;DHT22;62291;47.554;8.504;2023-03-23T07:20:23;14.30;99.90
73939;DHT22;62291;47.554;8.504;2023-03-23T07:22:49;14.50;99.90
73939;DHT22;62291;47.554;8.504;2023-03-23T07:25:16;14.50;99.90
73939;DHT22;62291;47.554;8.504;2023-03-23T07:27:41;14.60;99.90
73939;DHT22;62291;47.554;8.504;2023-03-23T07:30:09;14.80;99.90
73939;DHT22;62291;47.554;8.504;2023-03-23T07:32:35;14.90;99.90
73939;DHT22;62291;47.554;8.504;2023-03-23T07:35:01;15.00;99.90
73939;DHT22;62291;47.554;8.504;2023-03-23T07:37:27;15.00;99.90
73939;DHT22;62291;47.554;8.504;2023-03-23T07:39:54;15.10;99.90
73939;DHT22;62291;47.554;8.504;2023-03-23T07:42:19;15.10;99.90
73939;DHT22;62291;47.554;8.504;2023-03-23T07:44:45;15.10;99.90
73939;DHT22;62291;47.554;8.504;2023-03-23T07:47:11;15.00;99.90
73939;DHT22;62291;47.554;8.504;2023-03-23T07:49:37;15.00;99.90
73939;DHT22;62291;47.554;8.504;2023-03-23T07:52:03;15.00;99.90
73939;DHT22;62291;47.554;8.504;2023-03-23T07:54:29;15.00;99.90
73939;DHT22;62291;47.554;8.504;2023-03-23T07:56:54;15.00;99.90
73939;DHT22;62291;47.554;8.504;2023-03-23T07:59:20;15.10;99.90
73939;DHT22;62291;47.554;8.504;2023-03-23T08:01:46;15.00;99.90
73939;DHT22;62291;47.554;8.504;2023-03-23T08:04:12;15.00;99.90
73939;DHT22;62291;47.554;8.504;2023-03-23T08:06:38;15.00;99.90
73939;DHT22;62291;47.554;8.504;2023-03-23T08:09:05;15.00;99.90
73939;DHT22;62291;47.554;8.504;2023-03-23T08:11:34;15.00;99.40
73939;DHT22;62291;47.554;8.504;2023-03-23T08:14:00;15.10;99.90
73939;DHT22;62291;47.554;8.504;2023-03-23T08:16:26;15.30;99.90
73939;DHT22;62291;47.554;8.504;2023-03-23T08:18:52;15.30;99.90
73939;DHT22;62291;47.554;8.504;2023-03-23T08:21:18;15.50;99.90
73939;DHT22;62291;47.554;8.504;2023-03-23T08:23:45;15.60;99.90
73939;DHT22;62291;47.554;8.504;2023-03-23T08:26:11;15.90;99.20
73939;DHT22;62291;47.554;8.504;2023-03-23T08:28:37;16.00;99.30
73939;DHT22;62291;47.554;8.504;2023-03-23T08:31:07;16.20;98.90
73939;DHT22;62291;47.554;8.504;2023-03-23T08:33:33;16.30;99.80
73939;DHT22;62291;47.554;8.504;2023-03-23T08:36:00;16.40;98.10
73939;DHT22;62291;47.554;8.504;2023-03-23T08:38:27;16.60;97.80
73939;DHT22;62291;47.554;8.504;2023-03-23T08:41:00;16.60;96.70
73939;DHT22;62291;47.554;8.504;2023-03-23T08:43:27;16.80;95.80
73939;DHT22;62291;47.554;8.504;2023-03-23T08:45:53;16.90;95.00
73939;DHT22;62291;47.554;8.504;2023-03-23T08:48:19;17.10;95.50
73939;DHT22;62291;47.554;8.504;2023-03-23T08:50:45;17.30;95.70
73939;DHT22;62291;47.554;8.504;2023-03-23T08:53:11;17.30;95.30
73939;DHT22;62291;47.554;8.504;2023-03-23T08:55:37;17.30;94.00
73939;DHT22;62291;47.554;8.504;2023-03-23T08:58:03;17.10;93.70
73939;DHT22;62291;47.554;8.504;2023-03-23T09:00:30;17.20;94.10
73939;DHT22;62291;47.554;8.504;2023-03-23T09:02:55;17.10;94.50
73939;DHT22;62291;47.554;8.504;2023-03-23T09:05:23;17.10;95.20
73939;DHT22;62291;47.554;8.504;2023-03-23T09:07:52;17.00;94.70
73939;DHT22;62291;47.554;8.504;2023-03-23T09:10:18;16.90;94.70
73939;DHT22;62291;47.554;8.504;2023-03-23T09:12:45;17.00;93.90
73939;DHT22;62291;47.554;8.504;2023-03-23T09:15:14;17.10;94.40
73939;DHT22;62291;47.554;8.504;2023-03-23T09:17:48;17.20;94.80
73939;DHT22;62291;47.554;8.504;2023-03-23T09:20:17;17.40;94.20
73939;DHT22;62291;47.554;8.504;2023-03-23T09:22:46;17.50;94.80
73939;DHT22;62291;47.554;8.504;2023-03-23T09:25:14;17.50;93.60
73939;DHT22;62291;47.554;8.504;2023-03-23T09:27:41;17.60;93.40
73939;DHT22;62291;47.554;8.504;2023-03-23T09:30:10;17.50;93.50
73939;DHT22;62291;47.554;8.504;2023-03-23T09:32:37;17.60;94.30
73939;DHT22;62291;47.554;8.504;2023-03-23T09:35:06;17.70;92.60
73939;DHT22;62291;47.554;8.504;2023-03-23T09:37:37;17.70;93.20
73939;DHT22;62291;47.554;8.504;2023-03-23T09:40:05;17.70;93.40
73939;DHT22;62291;47.554;8.504;2023-03-23T09:50:31;18.30;92.60
73939;DHT22;62291;47.554;8.504;2023-03-23T09:52:59;18.50;91.00
73939;DHT22;62291;47.554;8.504;2023-03-23T09:55:26;18.50;90.40
73939;DHT22;62291;47.554;8.504;2023-03-23T09:58:21;18.40;90.00
73939;DHT22;62291;47.554;8.504;2023-03-23T10:01:10;18.40;90.40
73939;DHT22;62291;47.554;8.504;2023-03-23T10:03:41;18.30;90.30
73939;DHT22;62291;47.554;8.504;2023-03-23T10:06:13;18.20;92.70
73939;DHT22;62291;47.554;8.504;2023-03-23T10:08:52;18.10;93.50
73939;DHT22;62291;47.554;8.504;2023-03-23T10:16:32;18.20;91.90
73939;DHT22;62291;47.554;8.504;2023-03-23T10:19:19;18.10;92.10
73939;DHT22;62291;47.554;8.504;2023-03-23T10:21:54;18.10;91.10
73939;DHT22;62291;47.554;8.504;2023-03-23T10:24:26;18.10;90.90
73939;DHT22;62291;47.554;8.504;2023-03-23T10:27:59;17.90;90.60
73939;DHT22;62291;47.554;8.504;2023-03-23T10:30:00;17.90;91.10
73939;DHT22;62291;47.554;8.504;2023-03-23T10:32:54;17.80;90.90
73939;DHT22;62291;47.554;8.504;2023-03-23T10:35:32;17.90;90.60
73939;DHT22;62291;47.554;8.504;2023-03-23T10:38:02;18.00;91.10
73939;DHT22;62291;47.554;8.504;2023-03-23T10:40:30;18.10;90.90
73939;DHT22;62291;47.554;8.504;2023-03-23T10:43:00;18.30;92.20
73939;DHT22;62291;47.554;8.504;2023-03-23T10:45:29;18.30;91.10
73939;DHT22;62291;47.554;8.504;2023-03-23T10:48:14;18.20;90.60
73939;DHT22;62291;47.554;8.504;2023-03-23T10:50:42;18.10;91.30
73939;DHT22;62291;47.554;8.504;2023-03-23T10:53:26;18.10;91.20
73939;DHT22;62291;47.554;8.504;2023-03-23T10:55:55;18.10;91.20
73939;DHT22;62291;47.554;8.504;2023-03-23T10:58:27;18.10;91.00
73939;DHT22;62291;47.554;8.504;2023-03-23T11:01:01;18.30;91.30
73939;DHT22;62291;47.554;8.504;2023-03-23T11:03:41;18.50;90.80
73939;DHT22;62291;47.554;8.504;2023-03-23T11:06:17;18.40;90.50
73939;DHT22;62291;47.554;8.504;2023-03-23T11:09:00;18.30;90.30
73939;DHT22;62291;47.554;8.504;2023-03-23T11:11:28;18.60;90.30
73939;DHT22;62291;47.554;8.504;2023-03-23T11:14:12;18.90;90.80
73939;DHT22;62291;47.554;8.504;2023-03-23T11:16:44;19.10;89.00
73939;DHT22;62291;47.554;8.504;2023-03-23T11:19:23;19.10;88.80
73939;DHT22;62291;47.554;8.504;2023-03-23T11:21:52;19.10;89.70
73939;DHT22;62291;47.554;8.504;2023-03-23T11:24:22;19.20;89.90
73939;DHT22;62291;47.554;8.504;2023-03-23T11:26:47;19.10;88.10
73939;DHT22;62291;47.554;8.504;2023-03-23T11:29:25;18.90;90.30
73939;DHT22;62291;47.554;8.504;2023-03-23T11:32:04;18.80;90.70
73939;DHT22;62291;47.554;8.504;2023-03-23T11:34:44;18.70;90.20
73939;DHT22;62291;47.554;8.504;2023-03-23T11:39:54;18.90;90.70
73939;DHT22;62291;47.554;8.504;2023-03-23T11:42:25;19.10;90.30
73939;DHT22;62291;47.554;8.504;2023-03-23T11:48:00;19.30;89.00
73939;DHT22;62291;47.554;8.504;2023-03-23T11:50:31;19.20;89.30
73939;DHT22;62291;47.554;8.504;2023-03-23T11:58:18;18.90;90.80
73939;DHT22;62291;47.554;8.504;2023-03-23T12:00:56;19.10;90.50
73939;DHT22;62291;47.554;8.504;2023-03-23T12:03:51;19.10;90.40
73939;DHT22;62291;47.554;8.504;2023-03-23T12:09:32;19.10;90.40
73939;DHT22;62291;47.554;8.504;2023-03-23T12:12:14;19.10;89.80
73939;DHT22;62291;47.554;8.504;2023-03-23T12:23:14;19.10;90.30
73939;DHT22;62291;47.554;8.504;2023-03-23T12:26:03;19.10;88.30
73939;DHT22;62291;47.554;8.504;2023-03-23T12:34:40;19.60;90.70
73939;DHT22;62291;47.554;8.504;2023-03-23T12:43:03;19.70;90.70
73939;DHT22;62291;47.554;8.504;2023-03-23T12:45:55;19.80;90.40
73939;DHT22;62291;47.554;8.504;2023-03-23T12:48:29;19.60;88.90
73939;DHT22;62291;47.554;8.504;2023-03-23T12:51:11;19.50;90.30
73939;DHT22;62291;47.554;8.504;2023-03-23T12:59:45;19.00;92.50
73939;DHT22;62291;47.554;8.504;2023-03-23T13:07:53;18.20;90.30
73939;DHT22;62291;47.554;8.504;2023-03-23T13:10:23;18.20;91.60
73939;DHT22;62291;47.554;8.504;2023-03-23T13:12:51;18.20;92.80
73939;DHT22;62291;47.554;8.504;2023-03-23T13:16:13;18.20;92.30
73939;DHT22;62291;47.554;8.504;2023-03-23T13:18:34;18.20;91.50
73939;DHT22;62291;47.554;8.504;2023-03-23T13:21:20;18.10;92.10
73939;DHT22;62291;47.554;8.504;2023-03-23T13:23:53;18.10;93.70
73939;DHT22;62291;47.554;8.504;2023-03-23T13:26:20;18.10;92.20
73939;DHT22;62291;47.554;8.504;2023-03-23T13:31:33;18.10;91.20
73939;DHT22;62291;47.554;8.504;2023-03-23T13:34:04;18.00;91.20
73939;DHT22;62291;47.554;8.504;2023-03-23T13:36:37;17.90;92.50
73939;DHT22;62291;47.554;8.504;2023-03-23T13:39:06;17.90;91.50
73939;DHT22;62291;47.554;8.504;2023-03-23T13:41:54;17.90;91.50
73939;DHT22;62291;47.554;8.504;2023-03-23T13:44:26;17.80;90.20
73939;DHT22;62291;47.554;8.504;2023-03-23T13:47:21;17.90;90.90
73939;DHT22;62291;47.554;8.504;2023-03-23T13:49:59;17.90;90.70
73939;DHT22;62291;47.554;8.504;2023-03-23T13:58:26;17.90;90.50
73939;DHT22;62291;47.554;8.504;2023-03-23T14:05:43;18.10;90.90
73939;DHT22;62291;47.554;8.504;2023-03-23T14:08:11;18.10;91.40
73939;DHT22;62291;47.554;8.504;2023-03-23T14:10:38;18.20;91.60
73939;DHT22;62291;47.554;8.504;2023-03-23T14:13:09;18.20;91.10
73939;DHT22;62291;47.554;8.504;2023-03-23T14:15:53;18.20;91.10
73939;DHT22;62291;47.554;8.504;2023-03-23T14:18:19;18.20;90.90
73939;DHT22;62291;47.554;8.504;2023-03-23T14:20:47;18.20;91.80
73939;DHT22;62291;47.554;8.504;2023-03-23T14:23:18;18.10;91.90
73939;DHT22;62291;47.554;8.504;2023-03-23T14:25:44;18.10;90.70
73939;DHT22;62291;47.554;8.504;2023-03-23T14:28:20;18.30;91.20
73939;DHT22;62291;47.554;8.504;2023-03-23T14:30:49;18.40;91.60
73939;DHT22;62291;47.554;8.504;2023-03-23T14:33:18;18.50;91.40
73939;DHT22;62291;47.554;8.504;2023-03-23T14:35:45;18.40;91.00
73939;DHT22;62291;47.554;8.504;2023-03-23T14:38:20;18.50;91.80
73939;DHT22;62291;47.554;8.504;2023-03-23T14:40:47;18.50;90.60
73939;DHT22;62291;47.554;8.504;2023-03-23T14:43:16;18.50;90.10
73939;DHT22;62291;47.554;8.504;2023-03-23T14:45:42;18.50;90.20
73939;DHT22;62291;47.554;8.504;2023-03-23T14:48:12;18.40;90.00
73939;DHT22;62291;47.554;8.504;2023-03-23T14:50:41;18.30;90.90
73939;DHT22;62291;47.554;8.504;2023-03-23T14:55:48;18.20;89.70
73939;DHT22;62291;47.554;8.504;2023-03-23T14:58:17;18.20;90.40
73939;DHT22;62291;47.554;8.504;2023-03-23T15:01:07;18.10;89.00
73939;DHT22;62291;47.554;8.504;2023-03-23T15:03:42;18.10;90.40
73939;DHT22;62291;47.554;8.504;2023-03-23T15:06:20;18.00;90.50
73939;DHT22;62291;47.554;8.504;2023-03-23T15:08:47;17.90;90.70
73939;DHT22;62291;47.554;8.504;2023-03-23T15:13:51;17.80;91.40
73939;DHT22;62291;47.554;8.504;2023-03-23T15:16:28;17.70;90.90
73939;DHT22;62291;47.554;8.504;2023-03-23T15:19:00;17.60;90.60
73939;DHT22;62291;47.554;8.504;2023-03-23T15:21:33;17.60;90.70
73939;DHT22;62291;47.554;8.504;2023-03-23T15:24:00;17.60;91.20
73939;DHT22;62291;47.554;8.504;2023-03-23T15:26:41;17.50;91.60
73939;DHT22;62291;47.554;8.504;2023-03-23T15:31:33;17.60;92.00
73939;DHT22;62291;47.554;8.504;2023-03-23T15:34:03;17.60;90.80
73939;DHT22;62291;47.554;8.504;2023-03-23T15:36:33;17.60;91.50
73939;DHT22;62291;47.554;8.504;2023-03-23T15:38:59;17.60;91.20
73939;DHT22;62291;47.554;8.504;2023-03-23T15:41:31;17.60;91.20
73939;DHT22;62291;47.554;8.504;2023-03-23T15:44:11;17.60;91.00
73939;DHT22;62291;47.554;8.504;2023-03-23T15:46:52;17.60;91.80
73939;DHT22;62291;47.554;8.504;2023-03-23T15:49:18;17.50;91.90
73939;DHT22;62291;47.554;8.504;2023-03-23T15:51:45;17.60;91.50
73939;DHT22;62291;47.554;8.504;2023-03-23T15:54:14;17.60;91.90
73939;DHT22;62291;47.554;8.504;2023-03-23T15:56:42;17.70;91.60
73939;DHT22;62291;47.554;8.504;2023-03-23T15:59:08;17.70;91.00
73939;DHT22;62291;47.554;8.504;2023-03-23T16:01:35;17.70;90.80
73939;DHT22;62291;47.554;8.504;2023-03-23T16:04:20;17.60;91.10
73939;DHT22;62291;47.554;8.504;2023-03-23T16:06:47;17.50;91.60
73939;DHT22;62291;47.554;8.504;2023-03-23T16:09:15;17.40;90.80
73939;DHT22;62291;47.554;8.504;2023-03-23T16:11:41;17.40;90.60
73939;DHT22;62291;47.554;8.504;2023-03-23T16:14:07;17.30;90.20
73939;DHT22;62291;47.554;8.504;2023-03-23T16:16:43;17.30;90.20
73939;DHT22;62291;47.554;8.504;2023-03-23T16:19:12;17.30;90.00
73939;DHT22;62291;47.554;8.504;2023-03-23T16:21:38;17.20;90.60
73939;DHT22;62291;47.554;8.504;2023-03-23T16:24:05;17.20;91.30
73939;DHT22;62291;47.554;8.504;2023-03-23T16:26:31;17.10;90.70
73939;DHT22;62291;47.554;8.504;2023-03-23T16:28:56;17.10;90.60
73939;DHT22;62291;47.554;8.504;2023-03-23T16:31:22;17.10;90.90
73939;DHT22;62291;47.554;8.504;2023-03-23T16:33:48;17.00;91.30
73939;DHT22;62291;47.554;8.504;2023-03-23T16:36:14;17.00;91.30
73939;DHT22;62291;47.554;8.504;2023-03-23T16:38:40;16.90;91.00
73939;DHT22;62291;47.554;8.504;2023-03-23T16:41:07;16.80;91.40
73939;DHT22;62291;47.554;8.504;2023-03-23T16:43:33;16.70;91.70
73939;DHT22;62291;47.554;8.504;2023-03-23T16:45:59;16.60;91.60
73939;DHT22;62291;47.554;8.504;2023-03-23T16:48:24;16.60;91.40
73939;DHT22;62291;47.554;8.504;2023-03-23T16:50:51;16.60;91.70
73939;DHT22;62291;47.554;8.504;2023-03-23T16:53:17;16.60;92.10
73939;DHT22;62291;47.554;8.504;2023-03-23T16:55:43;16.60;92.10
73939;DHT22;62291;47.554;8.504;2023-03-23T16:58:12;16.60;92.40
73939;DHT22;62291;47.554;8.504;2023-03-23T17:00:38;16.60;91.60
73939;DHT22;62291;47.554;8.504;2023-03-23T17:03:05;16.60;91.70
73939;DHT22;62291;47.554;8.504;2023-03-23T17:05:31;16.60;91.80
73939;DHT22;62291;47.554;8.504;2023-03-23T17:07:57;16.50;92.70
73939;DHT22;62291;47.554;8.504;2023-03-23T17:10:27;16.40;92.50
73939;DHT22;62291;47.554;8.504;2023-03-23T17:12:54;16.40;92.00
73939;DHT22;62291;47.554;8.504;2023-03-23T17:15:20;16.40;92.40
73939;DHT22;62291;47.554;8.504;2023-03-23T17:17:45;16.30;92.30
73939;DHT22;62291;47.554;8.504;2023-03-23T17:20:12;16.30;92.00
73939;DHT22;62291;47.554;8.504;2023-03-23T17:22:39;16.30;92.60
73939;DHT22;62291;47.554;8.504;2023-03-23T17:25:06;16.30;92.20
73939;DHT22;62291;47.554;8.504;2023-03-23T17:27:33;16.30;92.60
73939;DHT22;62291;47.554;8.504;2023-03-23T17:29:59;16.30;93.50
73939;DHT22;62291;47.554;8.504;2023-03-23T17:32:24;16.20;92.90
73939;DHT22;62291;47.554;8.504;2023-03-23T17:34:51;16.20;94.50
73939;DHT22;62291;47.554;8.504;2023-03-23T17:37:18;16.10;93.40